createdAt,value
2018-03-25T00:01:38.837Z,1.80
2018-03-25T00:04:07.762Z,1.80
2018-03-25T00:06:35.873Z,1.70
2018-03-25T00:09:04.018Z,1.70
2018-03-25T00:11:32.151Z,1.70
2018-03-25T00:14:01.171Z,1.60
2018-03-25T00:16:29.369Z,1.50
2018-03-25T00:18:57.496Z,1.60
2018-03-25T00:21:25.649Z,1.60
2018-03-25T00:23:54.678Z,1.50
2018-03-25T00:26:22.798Z,1.50
2018-03-25T00:28:51.006Z,1.40
2018-03-25T00:31:19.889Z,1.40
2018-03-25T00:33:48.189Z,1.40
2018-03-25T00:36:16.363Z,1.40
2018-03-25T00:38:44.500Z,1.30
2018-03-25T00:41:13.393Z,1.30
2018-03-25T00:43:42.305Z,1.30
2018-03-25T00:46:10.441Z,1.30
2018-03-25T00:48:38.654Z,1.40
2018-03-25T00:51:07.528Z,1.40
2018-03-25T00:53:35.721Z,1.30
2018-03-25T00:56:03.851Z,1.30
2018-03-25T00:58:31.982Z,1.20
2018-03-25T01:01:00.116Z,1.30
2018-03-25T01:03:28.299Z,1.20
2018-03-25T01:05:56.437Z,1.20
2018-03-25T01:08:25.368Z,1.20
2018-03-25T01:10:53.465Z,1.20
2018-03-25T01:13:21.603Z,1.20
2018-03-25T01:16:01.733Z,1.10
2018-03-25T01:18:30.617Z,1.10
2018-03-25T01:20:59.612Z,1.00
2018-03-25T01:23:28.503Z,1.00
2018-03-25T01:25:57.397Z,1.10
2018-03-25T01:28:25.559Z,1.00
2018-03-25T01:30:54.469Z,1.10
2018-03-25T01:33:22.596Z,1.10
2018-03-25T01:35:50.718Z,1.10
2018-03-25T01:38:18.842Z,1.20
2018-03-25T01:40:46.961Z,1.20
2018-03-25T01:43:15.101Z,1.20
2018-03-25T01:45:44.033Z,1.20
2018-03-25T01:48:12.194Z,1.10
2018-03-25T01:50:41.564Z,1.10
2018-03-25T01:53:10.484Z,1.10
2018-03-25T01:55:38.593Z,1.10
2018-03-25T01:58:06.808Z,1.20
2018-03-25T02:00:35.822Z,1.20
2018-03-25T02:03:03.933Z,1.10
2018-03-25T02:05:32.073Z,1.10
2018-03-25T02:08:00.297Z,1.10
2018-03-25T02:10:29.227Z,1.10
2018-03-25T02:12:57.355Z,1.10
2018-03-25T02:15:26.288Z,1.10
2018-03-25T02:17:55.184Z,1.00
2018-03-25T02:20:23.285Z,1.00
2018-03-25T02:22:51.510Z,1.00
2018-03-25T02:25:19.614Z,0.90
2018-03-25T02:27:47.729Z,0.90
2018-03-25T02:30:16.699Z,0.90
2018-03-25T02:32:44.842Z,0.80
2018-03-25T02:35:13.086Z,0.80
2018-03-25T02:37:41.205Z,0.80
2018-03-25T02:40:09.350Z,0.80
2018-03-25T02:42:37.473Z,0.80
2018-03-25T02:45:05.751Z,0.80
2018-03-25T02:47:34.697Z,0.80
2018-03-25T02:50:03.082Z,0.70
2018-03-25T02:52:31.184Z,0.80
2018-03-25T02:54:59.373Z,0.70
2018-03-25T02:57:28.296Z,0.70
2018-03-25T02:59:56.462Z,0.70
2018-03-25T03:02:24.634Z,0.70
2018-03-25T03:04:52.741Z,0.70
2018-03-25T03:07:20.885Z,0.70
2018-03-25T03:09:49.126Z,0.60
2018-03-25T03:12:18.109Z,0.60
2018-03-25T03:14:47.098Z,0.50
2018-03-25T03:17:16.084Z,0.50
2018-03-25T03:19:44.961Z,0.50
2018-03-25T03:22:13.903Z,0.60
2018-03-25T03:24:42.101Z,0.50
2018-03-25T03:27:10.310Z,0.60
2018-03-25T03:29:39.202Z,0.50
2018-03-25T03:32:08.219Z,0.40
2018-03-25T03:34:36.401Z,0.40
2018-03-25T03:37:04.514Z,0.40
2018-03-25T03:39:32.648Z,0.40
2018-03-25T03:42:00.771Z,0.40
2018-03-25T03:44:28.908Z,0.40
2018-03-25T03:46:57.068Z,0.40
2018-03-25T03:49:25.185Z,0.30
2018-03-25T03:51:54.080Z,0.20
2018-03-25T03:54:23.009Z,0.10
2018-03-25T03:56:51.998Z,0.10
2018-03-25T03:59:20.114Z,0.00
2018-03-25T04:01:48.256Z,0.00
2018-03-25T04:04:16.422Z,0.00
2018-03-25T04:06:44.588Z,0.00
2018-03-25T04:09:12.709Z,-0.10
2018-03-25T04:11:40.930Z,-0.10
2018-03-25T04:14:09.821Z,-0.20
2018-03-25T04:16:37.929Z,-0.20
2018-03-25T04:19:06.141Z,-0.10
2018-03-25T04:21:35.228Z,-0.10
2018-03-25T04:24:04.153Z,-0.10
2018-03-25T04:26:33.108Z,-0.10
2018-03-25T04:29:02.045Z,-0.20
2018-03-25T04:31:30.165Z,-0.20
2018-03-25T04:33:59.157Z,-0.20
2018-03-25T04:36:28.086Z,-0.10
2018-03-25T04:38:56.253Z,-0.20
2018-03-25T04:41:24.393Z,-0.10
2018-03-25T04:43:53.287Z,0.00
2018-03-25T04:46:22.176Z,0.00
2018-03-25T04:48:51.067Z,-0.10
2018-03-25T04:51:20.045Z,-0.10
2018-03-25T04:53:48.972Z,-0.20
2018-03-25T04:56:17.086Z,-0.20
2018-03-25T04:58:45.204Z,-0.20
2018-03-25T05:01:13.341Z,-0.20
2018-03-25T05:03:42.235Z,-0.20
2018-03-25T05:06:11.157Z,-0.10
2018-03-25T05:08:39.320Z,-0.20
2018-03-25T05:11:07.822Z,-0.10
2018-03-25T05:13:35.952Z,-0.20
2018-03-25T05:16:04.849Z,-0.20
2018-03-25T05:18:33.757Z,-0.20
2018-03-25T05:21:01.917Z,-0.30
2018-03-25T05:23:30.113Z,-0.30
2018-03-25T05:25:58.255Z,-0.30
2018-03-25T05:28:27.233Z,-0.20
2018-03-25T05:30:56.401Z,-0.20
2018-03-25T05:33:24.649Z,-0.20
2018-03-25T05:35:52.817Z,-0.20
2018-03-25T05:38:20.949Z,-0.20
2018-03-25T05:40:49.878Z,-0.10
2018-03-25T05:43:17.994Z,-0.10
2018-03-25T05:45:46.224Z,-0.10
2018-03-25T05:48:14.362Z,0.00
2018-03-25T05:50:43.283Z,0.10
2018-03-25T05:53:11.456Z,0.00
2018-03-25T05:55:39.543Z,0.10
2018-03-25T05:58:07.800Z,0.10
2018-03-25T06:00:35.905Z,0.20
2018-03-25T06:03:04.120Z,0.30
2018-03-25T06:05:33.023Z,0.60
2018-03-25T06:08:01.205Z,0.50
2018-03-25T06:10:29.317Z,0.60
2018-03-25T06:12:58.956Z,0.80
2018-03-25T06:15:27.935Z,0.90
2018-03-25T06:17:56.147Z,0.90
2018-03-25T06:20:25.937Z,1.10
2018-03-25T06:22:54.085Z,1.10
2018-03-25T06:25:22.233Z,1.20
2018-03-25T06:27:50.342Z,1.40
2018-03-25T06:30:19.236Z,1.60
2018-03-25T06:32:48.253Z,1.70
2018-03-25T06:35:16.370Z,1.70
2018-03-25T06:37:44.495Z,1.80
2018-03-25T06:40:12.669Z,1.90
2018-03-25T06:42:40.774Z,2.00
2018-03-25T06:45:08.900Z,2.20
2018-03-25T06:47:37.185Z,2.20
2018-03-25T06:50:05.303Z,2.40
2018-03-25T06:52:33.444Z,2.50
2018-03-25T06:55:01.598Z,2.70
2018-03-25T06:57:30.534Z,2.90
2018-03-25T06:59:58.734Z,2.90
2018-03-25T07:02:27.629Z,3.10
2018-03-25T07:04:56.602Z,3.20
2018-03-25T07:07:25.642Z,3.40
2018-03-25T07:09:53.737Z,3.30
2018-03-25T07:12:21.860Z,3.50
2018-03-25T07:14:50.135Z,3.70
2018-03-25T07:17:18.323Z,3.80
2018-03-25T07:19:46.438Z,3.90
2018-03-25T07:22:16.064Z,4.00
2018-03-25T07:24:45.182Z,4.00
2018-03-25T07:27:13.369Z,4.00
2018-03-25T07:29:41.468Z,4.00
2018-03-25T07:32:09.602Z,4.10
2018-03-25T07:34:37.739Z,4.10
2018-03-25T07:37:05.869Z,4.20
2018-03-25T07:39:34.023Z,4.30
2018-03-25T07:42:02.213Z,4.30
2018-03-25T07:44:30.338Z,4.40
2018-03-25T07:46:59.270Z,4.50
2018-03-25T07:49:27.434Z,4.50
2018-03-25T07:51:56.324Z,4.70
2018-03-25T07:54:24.482Z,4.60
2018-03-25T07:56:53.362Z,4.90
2018-03-25T07:59:21.539Z,4.80
2018-03-25T08:01:50.513Z,5.10
2018-03-25T08:04:19.436Z,5.20
2018-03-25T08:06:47.534Z,5.10
2018-03-25T08:09:15.823Z,5.20
2018-03-25T08:11:43.906Z,5.40
2018-03-25T08:14:12.826Z,5.70
2018-03-25T08:16:40.960Z,5.70
2018-03-25T08:19:09.121Z,5.90
2018-03-25T08:21:37.362Z,6.10
2018-03-25T08:24:05.515Z,6.10
2018-03-25T08:26:33.654Z,6.30
2018-03-25T08:29:01.875Z,6.40
2018-03-25T08:31:30.045Z,6.60
2018-03-25T08:33:58.218Z,6.80
2018-03-25T08:36:26.395Z,7.00
2018-03-25T08:38:54.559Z,7.00
2018-03-25T08:41:22.693Z,7.10
2018-03-25T08:43:51.623Z,7.20
2018-03-25T08:46:19.795Z,7.20
2018-03-25T08:48:48.787Z,7.50
2018-03-25T08:51:16.931Z,7.50
2018-03-25T08:53:45.840Z,7.80
2018-03-25T08:56:14.021Z,7.70
2018-03-25T08:58:42.187Z,7.80
2018-03-25T09:01:10.367Z,7.80
2018-03-25T09:03:38.536Z,7.90
2018-03-25T09:06:06.824Z,8.00
2018-03-25T09:08:34.985Z,8.10
2018-03-25T09:11:03.123Z,8.20
2018-03-25T09:13:32.060Z,8.20
2018-03-25T09:16:00.228Z,8.20
2018-03-25T09:18:28.322Z,8.30
2018-03-25T09:20:56.553Z,8.30
2018-03-25T09:23:24.703Z,8.40
2018-03-25T09:25:52.812Z,8.40
2018-03-25T09:28:20.961Z,8.50
2018-03-25T09:30:49.104Z,8.80
2018-03-25T09:33:17.321Z,8.90
2018-03-25T09:35:45.465Z,9.00
2018-03-25T09:38:14.397Z,9.20
2018-03-25T09:40:42.514Z,9.20
2018-03-25T09:43:11.520Z,9.40
2018-03-25T09:45:39.821Z,9.30
2018-03-25T09:48:07.999Z,9.40
2018-03-25T09:50:36.153Z,9.50
2018-03-25T09:53:04.355Z,9.70
2018-03-25T09:55:32.480Z,9.70
2018-03-25T09:58:01.398Z,9.60
2018-03-25T10:00:29.585Z,9.60
2018-03-25T10:02:59.445Z,9.50
2018-03-25T10:05:27.594Z,9.40
2018-03-25T10:07:55.758Z,9.30
2018-03-25T10:10:23.908Z,9.30
2018-03-25T10:12:52.001Z,9.30
2018-03-25T10:15:20.222Z,9.40
2018-03-25T10:17:49.339Z,9.70
2018-03-25T10:20:17.514Z,9.70
2018-03-25T10:22:45.723Z,9.70
2018-03-25T10:25:15.705Z,10.10
2018-03-25T10:27:44.673Z,10.30
2018-03-25T10:30:13.581Z,10.50
2018-03-25T10:32:41.754Z,10.40
2018-03-25T10:35:09.951Z,10.70
2018-03-25T10:37:39.104Z,10.80
2018-03-25T10:40:08.010Z,11.10
2018-03-25T10:42:36.194Z,11.10
2018-03-25T10:45:04.339Z,10.90
2018-03-25T10:47:32.477Z,10.90
2018-03-25T10:50:00.703Z,10.90
2018-03-25T10:52:28.882Z,11.00
2018-03-25T10:54:57.049Z,11.10
2018-03-25T10:57:25.226Z,11.20
2018-03-25T10:59:54.609Z,11.30
2018-03-25T11:02:23.615Z,11.60
2018-03-25T11:04:52.626Z,11.70
2018-03-25T11:07:20.883Z,11.60
2018-03-25T11:09:49.019Z,11.70
2018-03-25T11:12:17.233Z,11.60
2018-03-25T11:14:45.518Z,11.60
2018-03-25T11:17:13.667Z,11.80
2018-03-25T11:19:41.808Z,11.90
2018-03-25T11:22:10.934Z,11.90
2018-03-25T11:24:39.139Z,11.90
2018-03-25T11:27:07.385Z,11.90
2018-03-25T11:29:35.561Z,12.00
2018-03-25T11:32:03.814Z,12.00
2018-03-25T11:34:32.010Z,12.10
2018-03-25T11:37:00.198Z,12.30
2018-03-25T11:39:28.372Z,12.60
2018-03-25T11:41:56.529Z,12.70
2018-03-25T11:44:24.804Z,12.60
2018-03-25T11:46:52.948Z,12.80
2018-03-25T11:49:21.948Z,12.80
2018-03-25T11:51:50.106Z,12.80
2018-03-25T11:54:19.041Z,13.00
2018-03-25T11:56:47.172Z,12.90
2018-03-25T11:59:15.380Z,13.10
2018-03-25T12:01:43.551Z,13.20
2018-03-25T12:04:11.689Z,13.30
2018-03-25T12:06:39.901Z,13.40
2018-03-25T12:09:08.022Z,13.60
2018-03-25T12:11:36.182Z,13.60
2018-03-25T12:14:04.720Z,13.80
2018-03-25T12:16:32.886Z,14.10
2018-03-25T12:19:01.862Z,14.30
2018-03-25T12:21:30.061Z,14.20
2018-03-25T12:23:58.202Z,14.30
2018-03-25T12:26:26.367Z,14.30
2018-03-25T12:28:55.391Z,14.30
2018-03-25T12:31:24.289Z,14.30
2018-03-25T12:33:52.451Z,14.30
2018-03-25T12:36:21.547Z,14.20
2018-03-25T12:38:49.693Z,14.20
2018-03-25T12:41:18.717Z,14.40
2018-03-25T12:43:46.844Z,14.40
2018-03-25T12:46:15.747Z,14.50
2018-03-25T12:48:44.772Z,14.50
2018-03-25T12:51:13.249Z,14.50
2018-03-25T12:53:41.367Z,14.50
2018-03-25T12:56:09.595Z,14.70
2018-03-25T12:58:37.719Z,14.80
2018-03-25T13:01:06.772Z,14.90
2018-03-25T13:03:35.172Z,14.80
2018-03-25T13:06:03.397Z,15.00
2018-03-25T13:08:31.587Z,15.10
2018-03-25T13:10:59.712Z,15.40
2018-03-25T13:13:27.887Z,15.70
2018-03-25T13:15:56.814Z,16.10
2018-03-25T13:18:24.967Z,16.10
2018-03-25T13:20:53.864Z,17.20
2018-03-25T13:23:22.043Z,17.20
2018-03-25T13:25:50.223Z,17.90
2018-03-25T13:28:18.368Z,18.70
2018-03-25T13:30:47.302Z,19.70
2018-03-25T13:33:15.464Z,19.70
2018-03-25T13:35:43.627Z,19.60
2018-03-25T13:38:11.787Z,19.90
2018-03-25T13:40:40.083Z,20.20
2018-03-25T13:43:08.195Z,21.20
2018-03-25T13:45:36.329Z,21.40
2018-03-25T13:48:04.470Z,21.70
2018-03-25T13:50:32.613Z,21.30
2018-03-25T13:53:00.773Z,21.10
2018-03-25T13:55:28.956Z,21.20
2018-03-25T13:57:57.094Z,21.30
2018-03-25T14:00:25.226Z,22.10
2018-03-25T14:02:53.368Z,23.30
2018-03-25T14:05:21.521Z,24.90
2018-03-25T14:07:50.471Z,27.00
2018-03-25T14:10:19.374Z,26.90
2018-03-25T14:12:47.539Z,26.80
2018-03-25T14:15:15.670Z,26.60
2018-03-25T14:17:43.839Z,26.70
2018-03-25T14:20:11.979Z,27.10
2018-03-25T14:22:40.167Z,26.80
2018-03-25T14:25:08.297Z,26.50
2018-03-25T14:27:36.482Z,27.00
2018-03-25T14:30:04.758Z,26.90
2018-03-25T14:32:32.817Z,27.70
2018-03-25T14:35:01.751Z,28.10
2018-03-25T14:37:29.889Z,28.00
2018-03-25T14:39:58.040Z,27.90
2018-03-25T14:42:26.238Z,28.10
2018-03-25T14:44:54.510Z,29.40
2018-03-25T14:47:22.682Z,30.20
2018-03-25T14:49:50.798Z,30.30
2018-03-25T14:52:18.970Z,30.80
2018-03-25T14:54:47.193Z,31.20
2018-03-25T14:57:15.312Z,31.80
2018-03-25T14:59:43.509Z,32.40
2018-03-25T15:02:11.749Z,32.80
2018-03-25T15:04:39.895Z,33.00
2018-03-25T15:07:08.024Z,33.20
2018-03-25T15:09:36.953Z,29.60
2018-03-25T15:12:05.118Z,29.40
2018-03-25T15:14:33.274Z,26.90
2018-03-25T15:17:02.180Z,25.60
2018-03-25T15:19:30.364Z,25.60
2018-03-25T15:21:58.528Z,25.80
2018-03-25T15:24:26.679Z,26.40
2018-03-25T15:26:55.595Z,28.60
2018-03-25T15:29:23.708Z,28.50
2018-03-25T15:31:51.865Z,29.30
2018-03-25T15:34:20.021Z,30.00
2018-03-25T15:36:48.157Z,30.80
2018-03-25T15:39:17.180Z,30.90
2018-03-25T15:41:45.311Z,30.90
2018-03-25T15:44:14.184Z,30.90
2018-03-25T15:46:43.114Z,30.40
2018-03-25T15:49:11.317Z,30.40
2018-03-25T15:51:40.258Z,30.60
2018-03-25T15:54:09.150Z,31.10
2018-03-25T15:56:38.115Z,31.00
2018-03-25T15:59:06.240Z,31.00
2018-03-25T16:01:34.378Z,30.50
2018-03-25T16:04:02.517Z,30.20
2018-03-25T16:06:30.755Z,29.70
2018-03-25T16:08:58.880Z,29.70
2018-03-25T16:11:27.795Z,29.20
2018-03-25T16:13:55.986Z,29.20
2018-03-25T16:16:24.123Z,29.40
2018-03-25T16:18:52.268Z,28.90
2018-03-25T16:21:20.476Z,27.40
2018-03-25T16:23:48.605Z,25.90
2018-03-25T16:26:16.779Z,24.00
2018-03-25T16:28:45.031Z,22.50
2018-03-25T16:31:13.197Z,21.10
2018-03-25T16:33:41.313Z,20.10
2018-03-25T16:36:09.513Z,19.40
2018-03-25T16:38:38.452Z,18.00
2018-03-25T16:41:06.603Z,17.90
2018-03-25T16:43:34.897Z,17.50
2018-03-25T16:46:03.029Z,17.10
2018-03-25T16:48:31.361Z,16.70
2018-03-25T16:50:59.591Z,16.40
2018-03-25T16:53:27.770Z,16.00
2018-03-25T16:55:55.928Z,15.60
2018-03-25T16:58:24.132Z,15.20
2018-03-25T17:00:52.304Z,15.00
2018-03-25T17:03:20.481Z,14.70
2018-03-25T17:05:48.651Z,14.50
2018-03-25T17:08:16.818Z,14.30
2018-03-25T17:10:44.983Z,14.10
2018-03-25T17:13:13.176Z,13.90
2018-03-25T17:15:41.329Z,13.70
2018-03-25T17:18:09.502Z,13.50
2018-03-25T17:20:37.675Z,13.20
2018-03-25T17:23:05.839Z,13.00
2018-03-25T17:25:34.017Z,12.70
2018-03-25T17:28:02.195Z,12.50
2018-03-25T17:30:30.355Z,12.30
2018-03-25T17:32:58.519Z,12.20
2018-03-25T17:35:27.426Z,11.80
2018-03-25T17:37:55.607Z,11.80
2018-03-25T17:40:23.808Z,11.70
2018-03-25T17:42:52.030Z,11.60
2018-03-25T17:45:20.212Z,11.50
2018-03-25T17:47:48.396Z,11.40
2018-03-25T17:50:16.573Z,11.30
2018-03-25T17:52:44.743Z,11.20
2018-03-25T17:55:13.003Z,11.20
2018-03-25T17:57:41.186Z,11.10
2018-03-25T18:00:09.365Z,11.00
2018-03-25T18:02:37.624Z,10.90
2018-03-25T18:05:05.808Z,10.80
2018-03-25T18:07:34.743Z,10.70
2018-03-25T18:10:02.910Z,10.60
2018-03-25T18:12:31.892Z,10.50
2018-03-25T18:15:00.020Z,10.40
2018-03-25T18:17:34.105Z,10.40
2018-03-25T18:19:56.471Z,10.30
2018-03-25T18:22:24.641Z,10.30
2018-03-25T18:24:52.829Z,10.30
2018-03-25T18:27:20.991Z,10.20
2018-03-25T18:29:49.176Z,10.10
2018-03-25T18:32:17.336Z,10.10
2018-03-25T18:34:45.524Z,10.00
2018-03-25T18:37:13.679Z,9.90
2018-03-25T18:39:41.850Z,9.80
2018-03-25T18:42:10.014Z,9.70
2018-03-25T18:44:38.240Z,9.70
2018-03-25T18:47:06.577Z,9.60
2018-03-25T18:49:34.746Z,9.60
2018-03-25T18:52:02.880Z,9.50
2018-03-25T18:54:31.052Z,9.40
2018-03-25T18:57:00.082Z,9.20
2018-03-25T18:59:28.270Z,9.20
2018-03-25T19:01:56.437Z,9.10
2018-03-25T19:04:24.593Z,9.00
2018-03-25T19:06:54.187Z,8.90
2018-03-25T19:09:22.445Z,8.90
2018-03-25T19:11:50.691Z,8.80
2018-03-25T19:14:19.167Z,8.80
2018-03-25T19:16:47.331Z,8.70
2018-03-25T19:19:15.608Z,8.60
2018-03-25T19:21:44.581Z,8.60
2018-03-25T19:24:12.741Z,8.50
2018-03-25T19:26:41.843Z,8.50
2018-03-25T19:29:11.311Z,8.40
2018-03-25T19:31:40.987Z,8.30
2018-03-25T19:34:09.385Z,8.20
2018-03-25T19:36:38.419Z,8.00
2018-03-25T19:39:06.541Z,8.00
2018-03-25T19:41:34.753Z,8.00
2018-03-25T19:44:02.894Z,7.90
2018-03-25T19:46:31.039Z,7.90
2018-03-25T19:48:59.353Z,7.90
2018-03-25T19:51:27.545Z,7.90
2018-03-25T19:53:56.502Z,7.70
2018-03-25T19:56:24.647Z,7.70
2018-03-25T19:58:52.896Z,7.70
2018-03-25T20:01:21.069Z,7.60
2018-03-25T20:03:49.280Z,7.50
2018-03-25T20:06:17.483Z,7.50
2018-03-25T20:08:46.505Z,7.40
2018-03-25T20:11:14.782Z,7.40
2018-03-25T20:13:43.084Z,7.30
2018-03-25T20:16:11.231Z,7.20
2018-03-25T20:18:39.403Z,7.20
2018-03-25T20:21:07.788Z,7.20
2018-03-25T20:23:36.360Z,7.10
2018-03-25T20:26:04.807Z,7.00
2018-03-25T20:28:34.611Z,6.90
2018-03-25T20:31:03.621Z,6.80
2018-03-25T20:33:32.737Z,6.80
2018-03-25T20:36:00.931Z,6.70
2018-03-25T20:38:30.332Z,6.70
2018-03-25T20:40:58.602Z,6.70
2018-03-25T20:43:26.757Z,6.70
2018-03-25T20:45:54.910Z,6.70
2018-03-25T20:48:23.177Z,6.60
2018-03-25T20:50:51.427Z,6.50
2018-03-25T20:53:19.656Z,6.40
2018-03-25T20:55:47.812Z,6.30
2018-03-25T20:58:16.000Z,6.20
2018-03-25T21:00:44.173Z,6.10
2018-03-25T21:03:12.447Z,6.10
2018-03-25T21:05:40.628Z,6.00
2018-03-25T21:08:08.821Z,6.00
2018-03-25T21:10:36.956Z,5.90
2018-03-25T21:13:05.863Z,5.90
2018-03-25T21:15:34.009Z,5.80
2018-03-25T21:18:02.178Z,5.80
2018-03-25T21:20:30.364Z,5.80
2018-03-25T21:22:58.539Z,5.80
2018-03-25T21:25:26.659Z,5.70
2018-03-25T21:27:54.885Z,5.70
2018-03-25T21:30:23.054Z,5.60
2018-03-25T21:32:51.203Z,5.50
2018-03-25T21:35:20.111Z,5.40
2018-03-25T21:37:48.252Z,5.40
2018-03-25T21:40:17.280Z,5.30
2018-03-25T21:42:46.273Z,5.30
2018-03-25T21:45:14.436Z,5.20
2018-03-25T21:47:44.112Z,5.30
2018-03-25T21:50:12.289Z,5.30
2018-03-25T21:52:40.498Z,5.20
2018-03-25T21:55:08.670Z,5.10
2018-03-25T21:57:37.574Z,5.10
2018-03-25T22:00:05.726Z,5.00
2018-03-25T22:02:33.903Z,5.10
2018-03-25T22:05:02.792Z,5.30
2018-03-25T22:07:30.920Z,5.30
2018-03-25T22:09:59.101Z,5.30
2018-03-25T22:12:27.222Z,5.30
2018-03-25T22:14:55.355Z,5.30
2018-03-25T22:17:24.306Z,5.40
2018-03-25T22:19:52.523Z,5.30
2018-03-25T22:22:20.673Z,5.30
2018-03-25T22:24:48.815Z,5.30
2018-03-25T22:27:16.961Z,5.30
2018-03-25T22:29:45.131Z,5.20
2018-03-25T22:32:14.083Z,5.30
2018-03-25T22:34:42.169Z,5.30
2018-03-25T22:37:11.389Z,5.40
2018-03-25T22:39:39.564Z,5.40
2018-03-25T22:42:08.435Z,5.50
2018-03-25T22:44:36.633Z,5.40
2018-03-25T22:47:04.766Z,5.50
2018-03-25T22:49:33.686Z,5.50
2018-03-25T22:52:02.573Z,5.50
2018-03-25T22:54:30.712Z,5.40
2018-03-25T22:56:59.639Z,5.50
2018-03-25T22:59:27.766Z,5.40
2018-03-25T23:01:55.974Z,5.40
2018-03-25T23:04:24.151Z,5.40
2018-03-25T23:06:52.309Z,5.30
2018-03-25T23:09:20.508Z,5.30
2018-03-25T23:11:48.655Z,5.30
2018-03-25T23:14:16.803Z,5.30
2018-03-25T23:16:45.677Z,5.50
2018-03-25T23:19:13.829Z,5.40
2018-03-25T23:21:41.979Z,5.50
2018-03-25T23:24:10.116Z,5.50
2018-03-25T23:26:39.139Z,5.50
2018-03-25T23:29:08.133Z,5.50
2018-03-25T23:31:36.303Z,5.40
2018-03-25T23:34:05.213Z,5.50
2018-03-25T23:36:33.444Z,5.50
2018-03-25T23:39:01.641Z,5.50
2018-03-25T23:41:29.763Z,5.50
2018-03-25T23:43:57.906Z,5.60
2018-03-25T23:46:26.055Z,5.60
2018-03-25T23:48:54.945Z,5.60
2018-03-25T23:51:23.117Z,5.60
2018-03-25T23:53:51.270Z,5.60
2018-03-25T23:56:19.393Z,5.60
2018-03-25T23:58:47.652Z,5.60
